MMGM/GYM METAR and TAF weather

Enter ICAO airport designator
Station Type Date Time Source
MMGM METAR 2022/09/26 01:41 UTC NOAA

MMGM 260141Z 20004KT 10SM SKC 33/27 A2970


Station Type Date Time Source
MMGM Decoded METAR 2022/09/26 01:41 UTC NOAA

Guaymas International Airport, Mexico (MMGM) 27-58N 110-56W
Sep 25, 2022 - 09:41 PM EDT / 2022.09.26 0141 UTC
Wind: from the SSW (200 degrees) at 5 MPH (4 KT):0
Visibility: 10 mile(s):0
Sky conditions: clear
Temperature: 91 F (33 C)
Heat index: 109.0 F (42.8 C):1
Dew Point: 80 F (27 C)
Relative Humidity: 70%
Pressure (altimeter): 29.7 in. Hg (1005 hPa)
ob: MMGM 260141Z 20004KT 10SM SKC 33/27 A2970
cycle: 1

Station Type Date Time Source
MMGM TAF 2022/09/26 06:45 UTC NOAA

TAF MMGM 260443Z 2606/2706 20005KT P6SM SKC
FM262100 24010KT P6SM SKC
FM270400 24005KT P6SM SKC

Example: see airport list